createdAt,value
2022-08-24T00:00:55.199Z,99.36
2022-08-24T00:03:22.240Z,99.43
2022-08-24T00:05:48.830Z,100.00
2022-08-24T00:08:15.396Z,100.00
2022-08-24T00:10:42.011Z,100.00
2022-08-24T00:13:09.174Z,100.00
2022-08-24T00:15:35.652Z,100.00
2022-08-24T00:18:02.423Z,100.00
2022-08-24T00:20:29.264Z,100.00
2022-08-24T00:22:55.746Z,100.00
2022-08-24T00:25:22.246Z,100.00
2022-08-24T00:27:48.759Z,100.00
2022-08-24T00:30:19.023Z,100.00
2022-08-24T00:32:47.997Z,100.00
2022-08-24T00:35:18.232Z,100.00
2022-08-24T00:37:45.926Z,100.00
2022-08-24T00:40:17.363Z,100.00
2022-08-24T00:42:43.805Z,100.00
2022-08-24T00:45:13.257Z,100.00
2022-08-24T00:47:47.647Z,100.00
2022-08-24T00:50:22.302Z,100.00
2022-08-24T00:52:53.352Z,100.00
2022-08-24T00:55:28.715Z,100.00
2022-08-24T00:58:01.609Z,100.00
2022-08-24T01:00:32.253Z,100.00
2022-08-24T01:03:04.496Z,100.00
2022-08-24T01:05:32.407Z,100.00
2022-08-24T01:08:00.708Z,100.00
2022-08-24T01:10:29.799Z,100.00
2022-08-24T01:13:01.395Z,100.00
2022-08-24T01:15:31.093Z,100.00
2022-08-24T01:18:17.123Z,100.00
2022-08-24T01:20:49.423Z,100.00
2022-08-24T01:23:36.678Z,100.00
2022-08-24T01:28:40.662Z,100.00
2022-08-24T01:31:08.036Z,100.00
2022-08-24T01:33:34.683Z,100.00
2022-08-24T01:36:05.735Z,100.00
2022-08-24T01:38:33.377Z,100.00
2022-08-24T01:41:02.133Z,100.00
2022-08-24T01:43:28.727Z,100.00
2022-08-24T01:45:57.139Z,100.00
2022-08-24T01:48:23.615Z,100.00
2022-08-24T01:50:50.253Z,100.00
2022-08-24T01:53:16.968Z,100.00
2022-08-24T01:55:43.803Z,100.00
2022-08-24T01:58:10.276Z,100.00
2022-08-24T02:00:37.640Z,100.00
2022-08-24T02:03:04.951Z,100.00
2022-08-24T02:05:31.548Z,100.00
2022-08-24T02:07:58.244Z,100.00
2022-08-24T02:10:27.355Z,100.00
2022-08-24T02:13:00.151Z,100.00
2022-08-24T02:15:29.381Z,100.00
2022-08-24T02:17:56.048Z,100.00
2022-08-24T02:20:23.332Z,100.00
2022-08-24T02:22:51.564Z,100.00
2022-08-24T02:25:18.529Z,100.00
2022-08-24T02:27:45.278Z,100.00
2022-08-24T02:30:12.123Z,100.00
2022-08-24T02:32:42.121Z,100.00
2022-08-24T02:35:09.704Z,100.00
2022-08-24T02:37:36.496Z,100.00
2022-08-24T02:40:11.089Z,100.00
2022-08-24T02:42:38.020Z,100.00
2022-08-24T02:45:05.314Z,100.00
2022-08-24T02:47:38.206Z,100.00
2022-08-24T02:50:08.124Z,100.00
2022-08-24T02:52:36.186Z,100.00
2022-08-24T02:55:02.961Z,100.00
2022-08-24T02:57:29.533Z,100.00
2022-08-24T02:59:55.952Z,100.00
2022-08-24T03:02:22.472Z,100.00
2022-08-24T03:04:49.331Z,100.00
2022-08-24T03:07:16.080Z,100.00
2022-08-24T03:09:42.507Z,100.00
2022-08-24T03:12:09.039Z,100.00
2022-08-24T03:14:35.908Z,100.00
2022-08-24T03:17:02.870Z,100.00
2022-08-24T03:19:29.951Z,100.00
2022-08-24T03:21:57.273Z,100.00
2022-08-24T03:24:24.000Z,100.00
2022-08-24T03:26:50.456Z,100.00
2022-08-24T03:29:17.136Z,100.00
2022-08-24T03:31:43.708Z,100.00
2022-08-24T03:34:13.731Z,100.00
2022-08-24T03:36:41.476Z,100.00
2022-08-24T03:39:07.911Z,100.00
2022-08-24T03:41:36.654Z,100.00
2022-08-24T03:44:04.077Z,100.00
2022-08-24T03:46:36.758Z,100.00
2022-08-24T03:49:06.337Z,100.00
2022-08-24T03:51:32.767Z,100.00
2022-08-24T03:54:02.605Z,100.00
2022-08-24T03:56:29.449Z,100.00
2022-08-24T03:58:56.240Z,100.00
2022-08-24T04:01:23.086Z,100.00
2022-08-24T04:03:50.321Z,100.00
2022-08-24T04:06:22.907Z,100.00
2022-08-24T04:08:50.166Z,100.00
2022-08-24T04:11:23.100Z,100.00
2022-08-24T04:13:52.704Z,100.00
2022-08-24T04:16:21.183Z,100.00
2022-08-24T04:18:48.608Z,100.00
2022-08-24T04:21:25.099Z,100.00
2022-08-24T04:23:52.488Z,100.00
2022-08-24T04:26:28.678Z,100.00
2022-08-24T04:29:09.482Z,100.00
2022-08-24T04:31:37.724Z,100.00
2022-08-24T04:34:05.423Z,100.00
2022-08-24T04:36:32.708Z,100.00
2022-08-24T04:39:00.873Z,100.00
2022-08-24T04:41:31.531Z,100.00
2022-08-24T04:43:59.479Z,100.00
2022-08-24T04:46:26.617Z,100.00
2022-08-24T04:48:53.053Z,100.00
2022-08-24T04:51:21.053Z,100.00
2022-08-24T04:53:49.108Z,100.00
2022-08-24T04:56:25.204Z,100.00
2022-08-24T04:58:53.593Z,100.00
2022-08-24T05:01:22.901Z,100.00
2022-08-24T05:03:52.243Z,100.00
2022-08-24T05:06:20.540Z,100.00
2022-08-24T05:08:47.586Z,100.00
2022-08-24T05:11:17.348Z,100.00
2022-08-24T05:13:43.876Z,100.00
2022-08-24T05:16:13.781Z,100.00
2022-08-24T05:18:41.199Z,100.00
2022-08-24T05:21:09.163Z,100.00
2022-08-24T05:23:37.328Z,100.00
2022-08-24T05:26:16.703Z,100.00
2022-08-24T05:28:43.630Z,100.00
2022-08-24T05:31:20.545Z,100.00
2022-08-24T05:33:48.231Z,100.00
2022-08-24T05:36:21.748Z,100.00
2022-08-24T05:38:49.631Z,100.00
2022-08-24T05:41:17.523Z,100.00
2022-08-24T05:43:44.664Z,100.00
2022-08-24T05:46:11.713Z,100.00
2022-08-24T05:48:38.196Z,100.00
2022-08-24T05:51:06.296Z,100.00
2022-08-24T05:53:33.497Z,100.00
2022-08-24T05:56:05.345Z,100.00
2022-08-24T05:58:31.862Z,100.00
2022-08-24T06:00:59.880Z,100.00
2022-08-24T06:03:26.945Z,100.00
2022-08-24T06:05:54.957Z,100.00
2022-08-24T06:08:21.507Z,100.00
2022-08-24T06:10:48.056Z,100.00
2022-08-24T06:13:14.755Z,100.00
2022-08-24T06:15:42.719Z,100.00
2022-08-24T06:18:14.458Z,100.00
2022-08-24T06:20:42.940Z,100.00
2022-08-24T06:23:12.596Z,100.00
2022-08-24T06:25:58.612Z,100.00
2022-08-24T06:28:25.795Z,100.00
2022-08-24T06:31:02.233Z,100.00
2022-08-24T06:33:28.761Z,100.00
2022-08-24T06:35:55.259Z,100.00
2022-08-24T06:38:22.913Z,100.00
2022-08-24T06:40:49.631Z,100.00
2022-08-24T06:43:16.170Z,100.00
2022-08-24T06:45:43.891Z,100.00
2022-08-24T06:48:11.539Z,100.00
2022-08-24T06:50:39.774Z,100.00
2022-08-24T06:53:06.343Z,100.00
2022-08-24T06:55:32.849Z,100.00
2022-08-24T06:57:59.522Z,100.00
2022-08-24T07:00:25.987Z,100.00
2022-08-24T07:02:52.547Z,100.00
2022-08-24T07:05:19.231Z,100.00
2022-08-24T07:07:45.703Z,100.00
2022-08-24T07:10:12.312Z,100.00
2022-08-24T07:12:38.746Z,100.00
2022-08-24T07:15:05.789Z,100.00
2022-08-24T07:17:42.706Z,100.00
2022-08-24T07:20:09.920Z,100.00
2022-08-24T07:22:36.325Z,100.00
2022-08-24T07:25:02.986Z,100.00
2022-08-24T07:27:29.557Z,98.96
2022-08-24T07:30:16.128Z,98.12
2022-08-24T07:32:42.436Z,97.04
2022-08-24T07:35:09.147Z,95.57
2022-08-24T07:37:41.269Z,92.74
2022-08-24T07:40:09.308Z,90.01
2022-08-24T07:42:35.897Z,89.48
2022-08-24T07:45:03.277Z,87.33
2022-08-24T07:47:54.570Z,84.46
2022-08-24T07:50:18.257Z,83.11
2022-08-24T07:52:45.570Z,82.23
2022-08-24T07:55:13.282Z,79.63
2022-08-24T07:57:41.020Z,79.34
2022-08-24T08:00:11.661Z,78.00
2022-08-24T08:02:40.645Z,76.36
2022-08-24T08:05:07.554Z,72.85
2022-08-24T08:07:34.054Z,71.74
2022-08-24T08:10:02.118Z,71.57
2022-08-24T08:12:28.535Z,70.58
2022-08-24T08:14:55.003Z,70.00
2022-08-24T08:17:21.454Z,69.09
2022-08-24T08:19:47.859Z,68.62
2022-08-24T08:22:33.206Z,66.55
2022-08-24T08:24:59.633Z,63.91
2022-08-24T08:27:26.433Z,63.18
2022-08-24T08:29:52.886Z,61.13
2022-08-24T08:32:20.120Z,59.28
2022-08-24T08:34:47.589Z,58.55
2022-08-24T08:37:14.887Z,57.60
2022-08-24T08:39:41.754Z,56.37
2022-08-24T08:42:38.174Z,53.70
2022-08-24T08:45:17.324Z,53.59
2022-08-24T08:50:44.782Z,51.54
2022-08-24T08:53:58.418Z,51.20
2022-08-24T08:56:56.073Z,51.21
2022-08-24T08:59:40.859Z,51.29
2022-08-24T09:02:17.437Z,50.57
2022-08-24T09:05:29.030Z,49.60
2022-08-24T09:08:10.446Z,51.17
2022-08-24T09:11:20.583Z,47.90
2022-08-24T09:14:05.338Z,48.06
2022-08-24T09:16:40.817Z,47.66
2022-08-24T09:19:19.479Z,48.40
2022-08-24T09:21:58.151Z,46.73
2022-08-24T09:24:33.369Z,45.87
2022-08-24T09:27:16.788Z,45.49
2022-08-24T09:29:54.111Z,44.80
2022-08-24T09:32:35.772Z,44.71
2022-08-24T09:35:11.110Z,45.47
2022-08-24T09:38:00.108Z,43.43
2022-08-24T09:40:36.484Z,43.17
2022-08-24T09:43:24.273Z,42.52
2022-08-24T09:46:00.134Z,43.55
2022-08-24T09:48:44.805Z,42.86
2022-08-24T09:51:44.406Z,40.50
2022-08-24T09:54:55.521Z,41.24
2022-08-24T10:00:46.696Z,40.33
2022-08-24T10:03:48.806Z,38.82
2022-08-24T10:06:33.786Z,39.60
2022-08-24T10:09:40.063Z,37.78
2022-08-24T10:12:22.776Z,36.46
2022-08-24T10:15:10.916Z,36.83
2022-08-24T10:18:08.834Z,35.55
2022-08-24T10:20:57.329Z,36.09
2022-08-24T10:23:55.100Z,35.61
2022-08-24T10:26:39.907Z,34.97
2022-08-24T10:29:22.307Z,34.67
2022-08-24T10:32:09.608Z,34.58
2022-08-24T10:34:54.475Z,35.43
2022-08-24T10:37:45.486Z,34.04
2022-08-24T10:40:37.254Z,33.83
2022-08-24T10:43:33.988Z,33.31
2022-08-24T10:46:18.709Z,33.01
2022-08-24T10:49:10.889Z,32.10
2022-08-24T10:52:04.437Z,31.92
2022-08-24T10:54:35.818Z,31.60
2022-08-24T10:57:11.621Z,31.61
2022-08-24T11:00:03.475Z,31.25
2022-08-24T11:02:36.627Z,30.72
2022-08-24T11:05:09.304Z,30.75
2022-08-24T11:07:36.893Z,31.55
2022-08-24T11:10:09.957Z,30.11
2022-08-24T11:12:42.737Z,30.05
2022-08-24T11:15:18.353Z,27.96
2022-08-24T11:17:58.398Z,28.26
2022-08-24T11:20:29.017Z,27.99
2022-08-24T11:23:07.915Z,26.94
2022-08-24T11:25:37.857Z,27.47
2022-08-24T11:28:25.309Z,26.16
2022-08-24T11:30:51.718Z,26.83
2022-08-24T11:33:34.021Z,26.34
2022-08-24T11:36:02.439Z,26.69
2022-08-24T11:38:34.362Z,25.81
2022-08-24T11:41:13.472Z,25.36
2022-08-24T11:44:02.004Z,26.08
2022-08-24T11:46:56.877Z,25.10
2022-08-24T11:49:35.429Z,25.41
2022-08-24T11:52:32.733Z,25.56
2022-08-24T11:55:17.799Z,25.36
2022-08-24T11:57:57.822Z,25.29
2022-08-24T12:00:30.265Z,25.37
2022-08-24T12:03:26.851Z,24.83
2022-08-24T12:06:00.932Z,24.43
2022-08-24T12:08:39.145Z,24.42
2022-08-24T12:11:33.085Z,24.52
2022-08-24T12:14:15.552Z,23.68
2022-08-24T12:17:20.389Z,23.92
2022-08-24T12:19:54.849Z,23.72
2022-08-24T12:22:22.452Z,24.46
2022-08-24T12:24:58.620Z,23.99
2022-08-24T12:27:37.569Z,24.01
2022-08-24T12:30:12.407Z,23.71
2022-08-24T12:32:46.999Z,23.75
2022-08-24T12:35:24.374Z,23.76
2022-08-24T12:37:58.597Z,23.51
2022-08-24T12:40:40.512Z,22.98
2022-08-24T12:43:14.106Z,23.33
2022-08-24T12:45:40.723Z,23.17
2022-08-24T12:48:26.331Z,22.91
2022-08-24T12:50:52.664Z,22.78
2022-08-24T12:53:46.617Z,21.98
2022-08-24T12:56:41.438Z,22.37
2022-08-24T12:59:07.887Z,22.69
2022-08-24T13:01:39.643Z,22.46
2022-08-24T13:04:29.669Z,22.36
2022-08-24T13:07:05.895Z,21.90
2022-08-24T13:09:46.168Z,22.19
2022-08-24T13:12:41.723Z,22.15
2022-08-24T13:15:26.437Z,21.82
2022-08-24T13:18:09.708Z,22.02
2022-08-24T13:20:36.568Z,21.93
2022-08-24T13:23:12.118Z,22.19
2022-08-24T13:25:47.502Z,22.11
2022-08-24T13:28:20.384Z,21.81
2022-08-24T13:31:02.615Z,21.93
2022-08-24T13:33:44.370Z,21.55
2022-08-24T13:36:29.109Z,21.66
2022-08-24T13:39:06.191Z,21.60
2022-08-24T13:41:47.373Z,21.86
2022-08-24T13:44:22.673Z,21.64
2022-08-24T13:47:12.361Z,21.73
2022-08-24T13:50:03.546Z,21.34
2022-08-24T13:52:39.288Z,21.13
2022-08-24T13:55:35.467Z,20.95
2022-08-24T13:58:23.542Z,21.34
2022-08-24T14:01:23.469Z,21.21
2022-08-24T14:03:55.134Z,21.11
2022-08-24T14:06:56.016Z,20.74
2022-08-24T14:09:38.484Z,21.04
2022-08-24T14:12:11.836Z,21.43
2022-08-24T14:14:38.245Z,21.48
2022-08-24T14:17:35.442Z,21.88
2022-08-24T14:20:08.377Z,21.52
2022-08-24T14:23:00.405Z,21.06
2022-08-24T14:25:33.253Z,21.23
2022-08-24T14:27:59.788Z,21.69
2022-08-24T14:30:26.293Z,21.60
2022-08-24T14:32:58.600Z,21.73
2022-08-24T14:35:34.360Z,21.46
2022-08-24T14:38:19.751Z,20.90
2022-08-24T14:40:58.065Z,21.17
2022-08-24T14:43:45.616Z,21.22
2022-08-24T14:46:24.585Z,21.47
2022-08-24T14:49:07.877Z,21.08
2022-08-24T14:52:19.246Z,21.10
2022-08-24T14:54:59.299Z,21.22
2022-08-24T14:58:04.452Z,20.95
2022-08-24T15:00:51.883Z,20.38
2022-08-24T15:03:32.704Z,19.71
2022-08-24T15:06:34.220Z,20.12
2022-08-24T15:09:28.768Z,19.53
2022-08-24T15:12:10.671Z,19.15
2022-08-24T15:14:46.626Z,19.39
2022-08-24T15:17:21.177Z,19.29
2022-08-24T15:20:09.401Z,18.63
2022-08-24T15:22:36.441Z,19.55
2022-08-24T15:25:12.618Z,18.88
2022-08-24T15:27:57.344Z,18.50
2022-08-24T15:30:28.205Z,18.44
2022-08-24T15:33:19.337Z,17.64
2022-08-24T15:35:49.206Z,18.64
2022-08-24T15:38:28.923Z,17.78
2022-08-24T15:41:18.721Z,17.72
2022-08-24T15:44:00.395Z,18.43
2022-08-24T15:46:33.001Z,17.77
2022-08-24T15:49:08.119Z,17.60
2022-08-24T15:51:43.619Z,17.94
2022-08-24T15:54:31.460Z,18.00
2022-08-24T15:57:18.101Z,17.69
2022-08-24T15:59:50.164Z,18.03
2022-08-24T16:02:29.145Z,17.98
2022-08-24T16:05:21.972Z,18.04
2022-08-24T16:08:04.153Z,17.97
2022-08-24T16:10:56.652Z,17.32
2022-08-24T16:13:29.070Z,17.58
2022-08-24T16:16:01.573Z,17.57
2022-08-24T16:18:53.605Z,17.29
2022-08-24T16:21:37.766Z,17.72
2022-08-24T16:24:37.744Z,17.61
2022-08-24T16:27:16.431Z,18.02
2022-08-24T16:29:51.108Z,18.38
2022-08-24T16:32:31.462Z,18.40
2022-08-24T16:35:14.413Z,18.52
2022-08-24T16:37:41.573Z,18.46
2022-08-24T16:40:09.451Z,18.93
2022-08-24T16:42:36.908Z,18.84
2022-08-24T16:45:09.499Z,19.04
2022-08-24T16:47:36.483Z,19.30
2022-08-24T16:50:04.498Z,19.77
2022-08-24T16:52:31.047Z,20.05
2022-08-24T16:54:57.629Z,20.40
2022-08-24T16:57:29.719Z,20.85
2022-08-24T16:59:56.645Z,21.06
2022-08-24T17:02:25.757Z,20.84
2022-08-24T17:04:54.444Z,21.10
2022-08-24T17:07:26.082Z,21.43
2022-08-24T17:09:54.355Z,22.05
2022-08-24T17:12:21.192Z,21.99
2022-08-24T17:14:48.037Z,22.52
2022-08-24T17:17:21.384Z,22.98
2022-08-24T17:19:50.955Z,23.04
2022-08-24T17:22:17.841Z,23.41
2022-08-24T17:24:45.526Z,23.37
2022-08-24T17:27:13.440Z,23.34
2022-08-24T17:29:41.441Z,23.80
2022-08-24T17:32:07.980Z,24.00
2022-08-24T17:34:34.746Z,23.93
2022-08-24T17:37:01.606Z,24.13
2022-08-24T17:39:28.695Z,24.10
2022-08-24T17:41:58.456Z,24.21
2022-08-24T17:44:27.508Z,24.29
2022-08-24T17:46:57.683Z,24.40
2022-08-24T17:49:25.948Z,24.86
2022-08-24T17:51:53.655Z,24.53
2022-08-24T17:54:20.072Z,24.76
2022-08-24T17:56:48.748Z,25.05
2022-08-24T17:59:20.003Z,25.24
2022-08-24T18:01:50.131Z,25.26
2022-08-24T18:04:17.893Z,25.50
2022-08-24T18:06:44.647Z,26.27
2022-08-24T18:09:22.256Z,27.14
2022-08-24T18:11:48.701Z,27.33
2022-08-24T18:14:15.101Z,27.60
2022-08-24T18:16:41.624Z,28.31
2022-08-24T18:19:09.294Z,28.41
2022-08-24T18:21:35.706Z,28.53
2022-08-24T18:24:02.105Z,28.79
2022-08-24T18:26:30.696Z,29.17
2022-08-24T18:29:01.968Z,29.24
2022-08-24T18:31:30.490Z,29.89
2022-08-24T18:33:57.023Z,30.06
2022-08-24T18:36:23.448Z,30.01
2022-08-24T18:38:49.981Z,30.00
2022-08-24T18:41:16.932Z,30.11
2022-08-24T18:43:43.431Z,30.54
2022-08-24T18:46:10.015Z,30.70
2022-08-24T18:48:36.480Z,30.71
2022-08-24T18:51:03.638Z,31.11
2022-08-24T18:53:30.204Z,31.42
2022-08-24T18:55:56.770Z,31.74
2022-08-24T18:58:23.248Z,31.80
2022-08-24T19:00:51.168Z,32.25
2022-08-24T19:03:23.148Z,32.82
2022-08-24T19:05:50.605Z,32.77
2022-08-24T19:08:17.066Z,32.74
2022-08-24T19:10:43.595Z,32.81
2022-08-24T19:13:15.741Z,33.21
2022-08-24T19:15:43.093Z,33.37
2022-08-24T19:18:11.236Z,33.41
2022-08-24T19:20:48.028Z,34.02
2022-08-24T19:23:37.214Z,34.78
2022-08-24T19:26:03.942Z,34.41
2022-08-24T19:28:31.241Z,34.75
2022-08-24T19:31:00.833Z,34.94
2022-08-24T19:33:33.917Z,35.17
2022-08-24T19:36:00.461Z,35.46
2022-08-24T19:38:26.971Z,35.51
2022-08-24T19:40:55.587Z,35.68
2022-08-24T19:43:25.788Z,35.75
2022-08-24T19:46:02.196Z,36.42
2022-08-24T19:48:34.347Z,36.68
2022-08-24T19:51:03.446Z,36.50
2022-08-24T19:53:32.859Z,36.54
2022-08-24T19:55:59.509Z,37.43
2022-08-24T19:58:39.080Z,37.39
2022-08-24T20:01:11.482Z,37.57
2022-08-24T20:03:38.047Z,37.84
2022-08-24T20:06:04.873Z,37.79
2022-08-24T20:08:31.344Z,37.84
2022-08-24T20:11:00.408Z,38.06
2022-08-24T20:13:27.471Z,38.26
2022-08-24T20:15:56.166Z,38.83
2022-08-24T20:18:31.324Z,39.28
2022-08-24T20:20:58.572Z,39.13
2022-08-24T20:23:25.487Z,39.18
2022-08-24T20:25:52.665Z,39.71
2022-08-24T20:28:29.472Z,39.73
2022-08-24T20:30:56.638Z,39.52
2022-08-24T20:33:27.863Z,39.47
2022-08-24T20:35:56.268Z,40.24
2022-08-24T20:38:23.558Z,40.49
2022-08-24T20:40:51.590Z,41.18
2022-08-24T20:43:19.054Z,41.75
2022-08-24T20:45:45.586Z,41.88
2022-08-24T20:48:13.905Z,42.56
2022-08-24T20:50:44.460Z,42.97
2022-08-24T20:53:11.854Z,43.50
2022-08-24T20:55:40.622Z,43.56
2022-08-24T20:58:07.886Z,43.61
2022-08-24T21:00:34.479Z,44.01
2022-08-24T21:03:01.070Z,44.39
2022-08-24T21:05:27.920Z,44.76
2022-08-24T21:07:57.164Z,45.36
2022-08-24T21:10:26.579Z,45.77
2022-08-24T21:12:53.849Z,46.18
2022-08-24T21:15:22.408Z,46.62
2022-08-24T21:17:49.331Z,46.56
2022-08-24T21:20:16.502Z,46.92
2022-08-24T21:22:45.936Z,47.12
2022-08-24T21:25:14.495Z,47.63
2022-08-24T21:27:44.010Z,47.55
2022-08-24T21:30:14.991Z,48.58
2022-08-24T21:33:00.527Z,48.60
2022-08-24T21:35:27.212Z,49.25
2022-08-24T21:37:53.693Z,49.94
2022-08-24T21:40:21.938Z,50.46
2022-08-24T21:42:49.075Z,51.06
2022-08-24T21:45:15.713Z,51.57
2022-08-24T21:47:42.152Z,52.04
2022-08-24T21:50:09.406Z,52.84
2022-08-24T21:52:35.839Z,52.81
2022-08-24T21:55:02.314Z,53.37
2022-08-24T21:57:28.911Z,54.20
2022-08-24T21:59:55.524Z,54.44
2022-08-24T22:02:21.951Z,55.29
2022-08-24T22:04:56.171Z,55.57
2022-08-24T22:07:24.623Z,56.16
2022-08-24T22:09:51.313Z,56.65
2022-08-24T22:12:18.492Z,56.65
2022-08-24T22:14:44.949Z,57.32
2022-08-24T22:17:11.610Z,57.00
2022-08-24T22:19:38.190Z,57.21
2022-08-24T22:22:05.168Z,57.67
2022-08-24T22:24:31.617Z,58.01
2022-08-24T22:26:58.111Z,58.09
2022-08-24T22:29:24.556Z,58.98
2022-08-24T22:31:51.820Z,59.30
2022-08-24T22:34:19.726Z,59.83
2022-08-24T22:36:48.244Z,60.68
2022-08-24T22:39:14.754Z,61.33
2022-08-24T22:41:41.487Z,61.91
2022-08-24T22:44:21.122Z,62.39
2022-08-24T22:46:56.218Z,64.12
2022-08-24T22:49:30.069Z,64.68
2022-08-24T22:51:56.772Z,64.04
2022-08-24T22:54:24.063Z,64.60
2022-08-24T22:56:53.348Z,64.63
2022-08-24T22:59:23.013Z,65.51
2022-08-24T23:01:51.522Z,65.26
2022-08-24T23:04:26.069Z,66.11
2022-08-24T23:06:52.714Z,65.66
2022-08-24T23:09:19.405Z,65.69
2022-08-24T23:11:46.290Z,65.85
2022-08-24T23:14:14.012Z,66.42
2022-08-24T23:16:44.873Z,66.03
2022-08-24T23:19:30.331Z,66.63
2022-08-24T23:21:56.735Z,67.46
2022-08-24T23:24:23.216Z,67.79
2022-08-24T23:26:49.808Z,68.61
2022-08-24T23:29:17.000Z,69.27
2022-08-24T23:31:44.367Z,69.72
2022-08-24T23:34:11.068Z,70.24
2022-08-24T23:36:38.392Z,70.60
2022-08-24T23:39:07.736Z,70.73
2022-08-24T23:41:36.533Z,71.34
2022-08-24T23:44:05.832Z,71.62
2022-08-24T23:46:32.337Z,72.56
2022-08-24T23:49:03.300Z,72.36
2022-08-24T23:51:30.562Z,72.56
2022-08-24T23:53:57.129Z,73.13
2022-08-24T23:56:25.969Z,73.29
2022-08-24T23:58:53.189Z,73.64
